sensor_id;sensor_type;location;lat;lon;timestamp;temperature;humidity
8662;DHT22;29684;47.722;9.388;2023-04-08T00:01:39;7.10;99.90
8662;DHT22;29684;47.722;9.388;2023-04-08T00:04:24;7.00;99.90
8662;DHT22;29684;47.722;9.388;2023-04-08T00:07:08;7.10;99.90
8662;DHT22;29684;47.722;9.388;2023-04-08T00:09:52;7.10;99.90
8662;DHT22;29684;47.722;9.388;2023-04-08T00:12:36;6.90;99.90
8662;DHT22;29684;47.722;9.388;2023-04-08T00:15:21;9.10;99.90
8662;DHT22;29684;47.722;9.388;2023-04-08T00:18:06;6.80;99.90
8662;DHT22;29684;47.722;9.388;2023-04-08T00:20:50;6.90;99.90
8662;DHT22;29684;47.722;9.388;2023-04-08T00:23:34;6.90;99.90
8662;DHT22;29684;47.722;9.388;2023-04-08T00:26:19;6.80;99.90
8662;DHT22;29684;47.722;9.388;2023-04-08T00:29:03;6.90;99.90
8662;DHT22;29684;47.722;9.388;2023-04-08T00:31:47;6.90;99.90
8662;DHT22;29684;47.722;9.388;2023-04-08T00:34:32;7.00;99.90
8662;DHT22;29684;47.722;9.388;2023-04-08T00:37:16;6.90;99.90
8662;DHT22;29684;47.722;9.388;2023-04-08T00:40:00;6.70;99.90
8662;DHT22;29684;47.722;9.388;2023-04-08T00:42:44;6.70;99.90
8662;DHT22;29684;47.722;9.388;2023-04-08T00:45:29;6.80;99.90
8662;DHT22;29684;47.722;9.388;2023-04-08T00:48:13;6.80;99.90
8662;DHT22;29684;47.722;9.388;2023-04-08T00:50:57;6.80;99.90
8662;DHT22;29684;47.722;9.388;2023-04-08T00:53:42;6.80;99.90
8662;DHT22;29684;47.722;9.388;2023-04-08T00:56:26;6.80;99.90
8662;DHT22;29684;47.722;9.388;2023-04-08T00:59:10;6.80;99.90
8662;DHT22;29684;47.722;9.388;2023-04-08T01:05:13;6.70;99.90
8662;DHT22;29684;47.722;9.388;2023-04-08T01:07:59;6.70;99.90
8662;DHT22;29684;47.722;9.388;2023-04-08T01:10:50;6.60;99.90
8662;DHT22;29684;47.722;9.388;2023-04-08T01:13:39;6.60;99.90
8662;DHT22;29684;47.722;9.388;2023-04-08T01:16:24;6.70;99.90
8662;DHT22;29684;47.722;9.388;2023-04-08T01:19:36;6.50;99.90
8662;DHT22;29684;47.722;9.388;2023-04-08T01:25:20;6.40;99.90
8662;DHT22;29684;47.722;9.388;2023-04-08T01:28:11;6.60;99.90
8662;DHT22;29684;47.722;9.388;2023-04-08T01:30:58;6.50;99.90
8662;DHT22;29684;47.722;9.388;2023-04-08T01:33:44;6.60;99.90
8662;DHT22;29684;47.722;9.388;2023-04-08T01:36:30;6.50;99.90
8662;DHT22;29684;47.722;9.388;2023-04-08T01:39:17;6.60;99.90
8662;DHT22;29684;47.722;9.388;2023-04-08T01:42:02;6.60;99.90
8662;DHT22;29684;47.722;9.388;2023-04-08T01:44:49;8.20;99.90
8662;DHT22;29684;47.722;9.388;2023-04-08T01:47:34;6.50;99.90
8662;DHT22;29684;47.722;9.388;2023-04-08T01:50:20;6.50;99.90
8662;DHT22;29684;47.722;9.388;2023-04-08T01:53:08;6.50;99.90
8662;DHT22;29684;47.722;9.388;2023-04-08T01:56:05;6.40;99.90
8662;DHT22;29684;47.722;9.388;2023-04-08T01:58:51;6.40;99.90
8662;DHT22;29684;47.722;9.388;2023-04-08T02:01:37;6.50;99.90
8662;DHT22;29684;47.722;9.388;2023-04-08T02:04:21;6.60;99.90
8662;DHT22;29684;47.722;9.388;2023-04-08T02:07:05;6.60;99.90
8662;DHT22;29684;47.722;9.388;2023-04-08T02:09:50;6.50;99.90
8662;DHT22;29684;47.722;9.388;2023-04-08T02:12:34;6.50;99.90
8662;DHT22;29684;47.722;9.388;2023-04-08T02:15:18;6.40;99.90
8662;DHT22;29684;47.722;9.388;2023-04-08T02:18:14;6.40;99.90
8662;DHT22;29684;47.722;9.388;2023-04-08T02:21:10;6.40;99.90
8662;DHT22;29684;47.722;9.388;2023-04-08T02:23:55;6.40;99.90
8662;DHT22;29684;47.722;9.388;2023-04-08T02:26:42;6.30;99.90
8662;DHT22;29684;47.722;9.388;2023-04-08T02:29:29;6.30;99.90
8662;DHT22;29684;47.722;9.388;2023-04-08T02:32:15;6.30;99.90
8662;DHT22;29684;47.722;9.388;2023-04-08T02:35:04;6.30;99.90
8662;DHT22;29684;47.722;9.388;2023-04-08T02:37:49;6.30;99.90
8662;DHT22;29684;47.722;9.388;2023-04-08T02:40:33;6.40;99.90
8662;DHT22;29684;47.722;9.388;2023-04-08T02:43:18;6.40;99.90
8662;DHT22;29684;47.722;9.388;2023-04-08T02:46:03;6.30;99.90
8662;DHT22;29684;47.722;9.388;2023-04-08T02:48:47;6.30;99.90
8662;DHT22;29684;47.722;9.388;2023-04-08T02:51:32;6.30;99.90
8662;DHT22;29684;47.722;9.388;2023-04-08T02:54:16;6.30;99.90
8662;DHT22;29684;47.722;9.388;2023-04-08T02:57:01;6.30;99.90
8662;DHT22;29684;47.722;9.388;2023-04-08T02:59:45;6.30;99.90
8662;DHT22;29684;47.722;9.388;2023-04-08T03:02:30;6.30;99.90
8662;DHT22;29684;47.722;9.388;2023-04-08T03:05:14;6.30;99.90
8662;DHT22;29684;47.722;9.388;2023-04-08T03:07:59;6.30;99.90
8662;DHT22;29684;47.722;9.388;2023-04-08T03:10:44;6.10;99.90
8662;DHT22;29684;47.722;9.388;2023-04-08T03:13:28;6.10;99.90
8662;DHT22;29684;47.722;9.388;2023-04-08T03:16:12;9.20;99.90
8662;DHT22;29684;47.722;9.388;2023-04-08T03:18:56;6.20;99.90
8662;DHT22;29684;47.722;9.388;2023-04-08T03:21:40;6.20;99.90
8662;DHT22;29684;47.722;9.388;2023-04-08T03:24:25;6.20;99.90
8662;DHT22;29684;47.722;9.388;2023-04-08T03:27:09;6.20;99.90
8662;DHT22;29684;47.722;9.388;2023-04-08T03:29:55;6.10;99.90
8662;DHT22;29684;47.722;9.388;2023-04-08T03:32:40;6.20;99.90
8662;DHT22;29684;47.722;9.388;2023-04-08T03:35:24;6.20;99.90
8662;DHT22;29684;47.722;9.388;2023-04-08T03:38:08;6.20;99.90
8662;DHT22;29684;47.722;9.388;2023-04-08T03:40:53;6.30;99.90
8662;DHT22;29684;47.722;9.388;2023-04-08T03:43:37;6.30;99.90
8662;DHT22;29684;47.722;9.388;2023-04-08T03:46:21;6.20;99.90
8662;DHT22;29684;47.722;9.388;2023-04-08T03:49:06;6.10;99.90
8662;DHT22;29684;47.722;9.388;2023-04-08T03:51:50;6.10;99.90
8662;DHT22;29684;47.722;9.388;2023-04-08T03:54:34;6.10;99.90
8662;DHT22;29684;47.722;9.388;2023-04-08T03:57:19;6.10;99.90
8662;DHT22;29684;47.722;9.388;2023-04-08T04:00:03;6.10;99.90
8662;DHT22;29684;47.722;9.388;2023-04-08T04:02:47;6.10;99.90
8662;DHT22;29684;47.722;9.388;2023-04-08T04:05:31;6.10;99.90
8662;DHT22;29684;47.722;9.388;2023-04-08T04:08:15;6.80;99.90
8662;DHT22;29684;47.722;9.388;2023-04-08T04:11:00;6.10;99.90
8662;DHT22;29684;47.722;9.388;2023-04-08T04:13:44;6.10;99.90
8662;DHT22;29684;47.722;9.388;2023-04-08T04:16:29;6.20;99.90
8662;DHT22;29684;47.722;9.388;2023-04-08T04:19:13;6.20;99.90
8662;DHT22;29684;47.722;9.388;2023-04-08T04:21:57;6.60;99.90
8662;DHT22;29684;47.722;9.388;2023-04-08T04:24:46;6.10;99.90
8662;DHT22;29684;47.722;9.388;2023-04-08T04:27:30;7.00;99.90
8662;DHT22;29684;47.722;9.388;2023-04-08T04:30:14;7.40;99.90
8662;DHT22;29684;47.722;9.388;2023-04-08T04:32:59;6.20;99.90
8662;DHT22;29684;47.722;9.388;2023-04-08T04:35:43;6.30;99.90
8662;DHT22;29684;47.722;9.388;2023-04-08T04:38:27;6.40;99.90
8662;DHT22;29684;47.722;9.388;2023-04-08T04:41:11;6.60;99.90
8662;DHT22;29684;47.722;9.388;2023-04-08T04:43:55;6.30;99.90
8662;DHT22;29684;47.722;9.388;2023-04-08T04:46:39;6.20;99.90
8662;DHT22;29684;47.722;9.388;2023-04-08T04:49:23;6.80;99.90
8662;DHT22;29684;47.722;9.388;2023-04-08T04:52:07;6.30;99.90
8662;DHT22;29684;47.722;9.388;2023-04-08T04:54:51;6.20;99.90
8662;DHT22;29684;47.722;9.388;2023-04-08T04:57:35;6.20;99.90
8662;DHT22;29684;47.722;9.388;2023-04-08T05:00:19;6.80;99.90
8662;DHT22;29684;47.722;9.388;2023-04-08T05:03:04;6.10;99.90
8662;DHT22;29684;47.722;9.388;2023-04-08T05:05:53;6.10;99.90
8662;DHT22;29684;47.722;9.388;2023-04-08T05:08:37;6.30;99.90
8662;DHT22;29684;47.722;9.388;2023-04-08T05:11:22;6.50;99.90
8662;DHT22;29684;47.722;9.388;2023-04-08T05:14:06;6.30;99.90
8662;DHT22;29684;47.722;9.388;2023-04-08T05:16:50;6.30;99.90
8662;DHT22;29684;47.722;9.388;2023-04-08T05:19:34;6.30;99.90
8662;DHT22;29684;47.722;9.388;2023-04-08T05:22:19;6.30;99.90
8662;DHT22;29684;47.722;9.388;2023-04-08T05:25:04;6.30;99.90
8662;DHT22;29684;47.722;9.388;2023-04-08T05:27:49;6.30;99.90
8662;DHT22;29684;47.722;9.388;2023-04-08T05:30:33;6.20;99.90
8662;DHT22;29684;47.722;9.388;2023-04-08T05:33:17;6.20;99.90
8662;DHT22;29684;47.722;9.388;2023-04-08T05:36:02;6.20;99.90
8662;DHT22;29684;47.722;9.388;2023-04-08T05:38:46;6.20;99.90
8662;DHT22;29684;47.722;9.388;2023-04-08T05:41:31;6.80;99.90
8662;DHT22;29684;47.722;9.388;2023-04-08T05:44:15;6.20;99.90
8662;DHT22;29684;47.722;9.388;2023-04-08T05:46:59;6.30;99.90
8662;DHT22;29684;47.722;9.388;2023-04-08T05:49:44;6.80;99.90
8662;DHT22;29684;47.722;9.388;2023-04-08T05:52:28;6.30;99.90
8662;DHT22;29684;47.722;9.388;2023-04-08T05:55:13;7.80;99.90
8662;DHT22;29684;47.722;9.388;2023-04-08T05:57:57;6.30;99.90
8662;DHT22;29684;47.722;9.388;2023-04-08T06:00:41;6.30;99.90
8662;DHT22;29684;47.722;9.388;2023-04-08T06:03:25;6.30;99.90
8662;DHT22;29684;47.722;9.388;2023-04-08T06:06:10;6.40;99.90
8662;DHT22;29684;47.722;9.388;2023-04-08T06:08:57;6.40;99.90
8662;DHT22;29684;47.722;9.388;2023-04-08T06:11:42;6.80;99.90
8662;DHT22;29684;47.722;9.388;2023-04-08T06:14:26;7.30;99.90
8662;DHT22;29684;47.722;9.388;2023-04-08T06:17:10;6.40;99.90
8662;DHT22;29684;47.722;9.388;2023-04-08T06:19:55;6.40;99.90
8662;DHT22;29684;47.722;9.388;2023-04-08T06:22:39;6.30;99.90
8662;DHT22;29684;47.722;9.388;2023-04-08T06:25:23;6.40;99.90
8662;DHT22;29684;47.722;9.388;2023-04-08T06:28:07;6.70;99.90
8662;DHT22;29684;47.722;9.388;2023-04-08T06:30:52;7.00;99.90
8662;DHT22;29684;47.722;9.388;2023-04-08T06:33:36;6.40;99.90
8662;DHT22;29684;47.722;9.388;2023-04-08T06:36:21;6.50;99.90
8662;DHT22;29684;47.722;9.388;2023-04-08T06:39:05;6.30;99.90
8662;DHT22;29684;47.722;9.388;2023-04-08T06:41:49;6.50;99.90
8662;DHT22;29684;47.722;9.388;2023-04-08T06:44:34;6.40;99.90
8662;DHT22;29684;47.722;9.388;2023-04-08T06:47:18;6.70;99.90
8662;DHT22;29684;47.722;9.388;2023-04-08T06:50:02;6.60;99.90
8662;DHT22;29684;47.722;9.388;2023-04-08T06:52:47;6.70;99.90
8662;DHT22;29684;47.722;9.388;2023-04-08T06:55:31;6.80;99.90
8662;DHT22;29684;47.722;9.388;2023-04-08T06:58:15;6.80;99.90
8662;DHT22;29684;47.722;9.388;2023-04-08T07:00:59;6.90;99.90
8662;DHT22;29684;47.722;9.388;2023-04-08T07:03:44;6.70;99.90
8662;DHT22;29684;47.722;9.388;2023-04-08T07:06:29;6.70;99.90
8662;DHT22;29684;47.722;9.388;2023-04-08T07:09:13;6.80;99.90
8662;DHT22;29684;47.722;9.388;2023-04-08T07:11:57;6.80;99.90
8662;DHT22;29684;47.722;9.388;2023-04-08T07:14:42;6.90;99.90
8662;DHT22;29684;47.722;9.388;2023-04-08T07:17:26;6.70;99.90
8662;DHT22;29684;47.722;9.388;2023-04-08T07:20:11;6.90;99.90
8662;DHT22;29684;47.722;9.388;2023-04-08T07:22:56;6.80;99.90
8662;DHT22;29684;47.722;9.388;2023-04-08T07:25:40;4.80;99.90
8662;DHT22;29684;47.722;9.388;2023-04-08T07:28:25;7.50;99.90
8662;DHT22;29684;47.722;9.388;2023-04-08T07:31:11;7.00;99.90
8662;DHT22;29684;47.722;9.388;2023-04-08T07:33:55;8.70;99.90
8662;DHT22;29684;47.722;9.388;2023-04-08T07:36:39;8.20;99.90
8662;DHT22;29684;47.722;9.388;2023-04-08T07:39:24;7.40;99.90
8662;DHT22;29684;47.722;9.388;2023-04-08T07:42:09;7.40;99.90
8662;DHT22;29684;47.722;9.388;2023-04-08T07:44:53;7.60;99.90
8662;DHT22;29684;47.722;9.388;2023-04-08T07:47:37;7.70;99.90
8662;DHT22;29684;47.722;9.388;2023-04-08T07:50:21;8.50;99.90
8662;DHT22;29684;47.722;9.388;2023-04-08T07:53:06;7.80;99.90
8662;DHT22;29684;47.722;9.388;2023-04-08T07:55:51;7.80;99.90
8662;DHT22;29684;47.722;9.388;2023-04-08T07:58:36;8.00;99.90
8662;DHT22;29684;47.722;9.388;2023-04-08T08:01:23;8.20;99.90
8662;DHT22;29684;47.722;9.388;2023-04-08T08:04:08;8.10;99.90
8662;DHT22;29684;47.722;9.388;2023-04-08T08:06:52;8.10;99.90
8662;DHT22;29684;47.722;9.388;2023-04-08T08:09:36;8.10;99.90
8662;DHT22;29684;47.722;9.388;2023-04-08T08:12:20;8.00;99.90
8662;DHT22;29684;47.722;9.388;2023-04-08T08:15:05;8.80;99.90
8662;DHT22;29684;47.722;9.388;2023-04-08T08:17:49;8.00;99.90
8662;DHT22;29684;47.722;9.388;2023-04-08T08:20:34;8.20;99.90
8662;DHT22;29684;47.722;9.388;2023-04-08T08:23:19;8.20;99.90
8662;DHT22;29684;47.722;9.388;2023-04-08T08:26:06;8.30;99.90
8662;DHT22;29684;47.722;9.388;2023-04-08T08:28:50;8.90;99.90
8662;DHT22;29684;47.722;9.388;2023-04-08T08:31:35;7.90;99.90
8662;DHT22;29684;47.722;9.388;2023-04-08T08:34:19;7.90;99.90
8662;DHT22;29684;47.722;9.388;2023-04-08T08:37:03;8.00;99.90
8662;DHT22;29684;47.722;9.388;2023-04-08T08:39:47;8.70;99.90
8662;DHT22;29684;47.722;9.388;2023-04-08T08:42:32;8.00;99.90
8662;DHT22;29684;47.722;9.388;2023-04-08T08:45:18;8.00;99.90
8662;DHT22;29684;47.722;9.388;2023-04-08T08:48:03;7.80;99.90
8662;DHT22;29684;47.722;9.388;2023-04-08T08:50:47;7.80;99.90
8662;DHT22;29684;47.722;9.388;2023-04-08T08:53:32;7.80;99.90
8662;DHT22;29684;47.722;9.388;2023-04-08T08:56:16;8.40;99.90
8662;DHT22;29684;47.722;9.388;2023-04-08T08:59:00;7.70;99.90
8662;DHT22;29684;47.722;9.388;2023-04-08T09:01:44;7.80;99.90
8662;DHT22;29684;47.722;9.388;2023-04-08T09:04:28;7.90;99.90
8662;DHT22;29684;47.722;9.388;2023-04-08T09:09:58;8.00;99.90
8662;DHT22;29684;47.722;9.388;2023-04-08T09:12:53;8.00;99.90
8662;DHT22;29684;47.722;9.388;2023-04-08T09:18:47;8.20;99.90
8662;DHT22;29684;47.722;9.388;2023-04-08T09:21:32;8.00;99.90
8662;DHT22;29684;47.722;9.388;2023-04-08T09:24:29;8.70;99.90
8662;DHT22;29684;47.722;9.388;2023-04-08T09:27:14;8.20;99.90
8662;DHT22;29684;47.722;9.388;2023-04-08T09:30:14;10.40;99.90
8662;DHT22;29684;47.722;9.388;2023-04-08T09:32:58;7.70;99.90
8662;DHT22;29684;47.722;9.388;2023-04-08T09:35:44;7.70;99.90
8662;DHT22;29684;47.722;9.388;2023-04-08T09:38:29;8.20;99.90
8662;DHT22;29684;47.722;9.388;2023-04-08T09:41:17;8.00;99.90
8662;DHT22;29684;47.722;9.388;2023-04-08T09:44:07;8.20;99.90
8662;DHT22;29684;47.722;9.388;2023-04-08T09:47:00;8.30;99.90
8662;DHT22;29684;47.722;9.388;2023-04-08T09:49:50;8.30;99.90
8662;DHT22;29684;47.722;9.388;2023-04-08T09:52:45;8.20;99.90
8662;DHT22;29684;47.722;9.388;2023-04-08T09:55:35;8.10;99.90
8662;DHT22;29684;47.722;9.388;2023-04-08T09:58:41;8.30;99.90
8662;DHT22;29684;47.722;9.388;2023-04-08T10:01:37;9.40;99.90
8662;DHT22;29684;47.722;9.388;2023-04-08T10:04:24;10.90;99.90
8662;DHT22;29684;47.722;9.388;2023-04-08T10:07:09;8.60;99.90
8662;DHT22;29684;47.722;9.388;2023-04-08T10:09:54;8.60;99.90
8662;DHT22;29684;47.722;9.388;2023-04-08T10:12:39;8.60;99.90
8662;DHT22;29684;47.722;9.388;2023-04-08T10:15:28;9.30;99.90
8662;DHT22;29684;47.722;9.388;2023-04-08T10:20:58;8.80;99.90
8662;DHT22;29684;47.722;9.388;2023-04-08T10:23:58;8.80;99.90
8662;DHT22;29684;47.722;9.388;2023-04-08T10:26:44;9.00;99.90
8662;DHT22;29684;47.722;9.388;2023-04-08T10:29:29;8.90;99.90
8662;DHT22;29684;47.722;9.388;2023-04-08T10:32:27;9.00;99.90
8662;DHT22;29684;47.722;9.388;2023-04-08T10:35:13;9.20;99.90
8662;DHT22;29684;47.722;9.388;2023-04-08T10:38:00;9.30;99.90
8662;DHT22;29684;47.722;9.388;2023-04-08T10:40:47;10.10;99.90
8662;DHT22;29684;47.722;9.388;2023-04-08T10:43:35;9.80;99.90
8662;DHT22;29684;47.722;9.388;2023-04-08T10:46:20;10.00;99.90
8662;DHT22;29684;47.722;9.388;2023-04-08T10:49:05;9.90;99.90
8662;DHT22;29684;47.722;9.388;2023-04-08T10:51:49;10.30;99.90
8662;DHT22;29684;47.722;9.388;2023-04-08T10:54:34;10.20;99.90
8662;DHT22;29684;47.722;9.388;2023-04-08T10:57:24;10.80;99.90
8662;DHT22;29684;47.722;9.388;2023-04-08T11:00:17;10.80;99.90
8662;DHT22;29684;47.722;9.388;2023-04-08T11:03:09;10.70;99.90
8662;DHT22;29684;47.722;9.388;2023-04-08T11:05:56;10.80;99.90
8662;DHT22;29684;47.722;9.388;2023-04-08T11:08:41;10.60;99.90
8662;DHT22;29684;47.722;9.388;2023-04-08T11:11:27;11.00;99.90
8662;DHT22;29684;47.722;9.388;2023-04-08T11:14:13;11.20;99.90
8662;DHT22;29684;47.722;9.388;2023-04-08T11:16:58;11.70;99.90
8662;DHT22;29684;47.722;9.388;2023-04-08T11:19:45;12.20;99.90
8662;DHT22;29684;47.722;9.388;2023-04-08T11:22:29;12.20;99.90
8662;DHT22;29684;47.722;9.388;2023-04-08T11:25:16;11.70;99.90
8662;DHT22;29684;47.722;9.388;2023-04-08T11:28:01;11.80;99.90
8662;DHT22;29684;47.722;9.388;2023-04-08T11:30:46;11.80;99.90
8662;DHT22;29684;47.722;9.388;2023-04-08T11:33:31;11.90;99.90
8662;DHT22;29684;47.722;9.388;2023-04-08T11:36:19;11.80;99.90
8662;DHT22;29684;47.722;9.388;2023-04-08T11:39:10;11.10;99.90
8662;DHT22;29684;47.722;9.388;2023-04-08T11:41:55;11.00;99.90
8662;DHT22;29684;47.722;9.388;2023-04-08T11:44:40;11.00;99.90
8662;DHT22;29684;47.722;9.388;2023-04-08T11:47:31;11.40;99.90
8662;DHT22;29684;47.722;9.388;2023-04-08T11:50:25;12.20;99.90
8662;DHT22;29684;47.722;9.388;2023-04-08T11:53:20;12.20;99.90
8662;DHT22;29684;47.722;9.388;2023-04-08T11:56:21;11.80;99.90
8662;DHT22;29684;47.722;9.388;2023-04-08T11:59:08;11.60;99.90
8662;DHT22;29684;47.722;9.388;2023-04-08T12:01:53;11.20;99.90
8662;DHT22;29684;47.722;9.388;2023-04-08T12:04:36;10.90;99.90
8662;DHT22;29684;47.722;9.388;2023-04-08T12:07:20;10.60;99.90
8662;DHT22;29684;47.722;9.388;2023-04-08T12:10:05;10.10;99.90
8662;DHT22;29684;47.722;9.388;2023-04-08T12:12:50;9.90;99.90
8662;DHT22;29684;47.722;9.388;2023-04-08T12:15:34;9.90;99.90
8662;DHT22;29684;47.722;9.388;2023-04-08T12:18:18;9.80;99.90
8662;DHT22;29684;47.722;9.388;2023-04-08T12:21:02;9.70;99.90
8662;DHT22;29684;47.722;9.388;2023-04-08T12:23:47;9.60;99.90
8662;DHT22;29684;47.722;9.388;2023-04-08T12:26:31;9.70;99.90
8662;DHT22;29684;47.722;9.388;2023-04-08T12:29:15;9.70;99.90
8662;DHT22;29684;47.722;9.388;2023-04-08T12:31:59;9.60;99.90
8662;DHT22;29684;47.722;9.388;2023-04-08T12:34:45;10.30;99.90
8662;DHT22;29684;47.722;9.388;2023-04-08T12:37:29;9.20;99.90
8662;DHT22;29684;47.722;9.388;2023-04-08T12:40:13;8.90;99.90
8662;DHT22;29684;47.722;9.388;2023-04-08T12:42:58;8.90;99.90
8662;DHT22;29684;47.722;9.388;2023-04-08T12:45:42;8.80;99.90
8662;DHT22;29684;47.722;9.388;2023-04-08T12:48:27;8.80;99.90
8662;DHT22;29684;47.722;9.388;2023-04-08T12:51:11;8.80;99.90
8662;DHT22;29684;47.722;9.388;2023-04-08T12:53:56;8.80;99.90
8662;DHT22;29684;47.722;9.388;2023-04-08T12:56:40;8.80;99.90
8662;DHT22;29684;47.722;9.388;2023-04-08T12:59:26;8.80;99.90
8662;DHT22;29684;47.722;9.388;2023-04-08T13:02:10;8.90;99.90
8662;DHT22;29684;47.722;9.388;2023-04-08T13:04:54;9.00;99.90
8662;DHT22;29684;47.722;9.388;2023-04-08T13:07:39;9.10;99.90
8662;DHT22;29684;47.722;9.388;2023-04-08T13:10:24;9.10;99.90
8662;DHT22;29684;47.722;9.388;2023-04-08T13:13:09;9.20;99.90
8662;DHT22;29684;47.722;9.388;2023-04-08T13:15:54;9.40;99.90
8662;DHT22;29684;47.722;9.388;2023-04-08T13:18:40;9.40;99.90
8662;DHT22;29684;47.722;9.388;2023-04-08T13:21:24;9.50;99.90
8662;DHT22;29684;47.722;9.388;2023-04-08T13:24:09;9.70;99.90
8662;DHT22;29684;47.722;9.388;2023-04-08T13:26:53;10.00;99.90
8662;DHT22;29684;47.722;9.388;2023-04-08T13:29:37;9.90;99.90
8662;DHT22;29684;47.722;9.388;2023-04-08T13:32:21;9.80;99.90
8662;DHT22;29684;47.722;9.388;2023-04-08T13:35:06;9.90;99.90
8662;DHT22;29684;47.722;9.388;2023-04-08T13:37:50;10.30;99.90
8662;DHT22;29684;47.722;9.388;2023-04-08T13:40:34;10.00;99.90
8662;DHT22;29684;47.722;9.388;2023-04-08T13:43:19;10.10;99.90
8662;DHT22;29684;47.722;9.388;2023-04-08T13:46:03;10.20;99.90
8662;DHT22;29684;47.722;9.388;2023-04-08T13:48:47;10.20;99.90
8662;DHT22;29684;47.722;9.388;2023-04-08T13:51:31;10.30;99.90
8662;DHT22;29684;47.722;9.388;2023-04-08T13:57:00;10.90;99.90
8662;DHT22;29684;47.722;9.388;2023-04-08T13:59:44;10.90;99.90
8662;DHT22;29684;47.722;9.388;2023-04-08T14:02:28;10.80;99.90
8662;DHT22;29684;47.722;9.388;2023-04-08T14:05:12;10.90;99.90
8662;DHT22;29684;47.722;9.388;2023-04-08T14:07:57;10.60;99.90
8662;DHT22;29684;47.722;9.388;2023-04-08T14:10:41;10.40;99.90
8662;DHT22;29684;47.722;9.388;2023-04-08T14:13:25;10.80;99.90
8662;DHT22;29684;47.722;9.388;2023-04-08T14:16:09;10.20;99.90
8662;DHT22;29684;47.722;9.388;2023-04-08T14:18:53;10.30;99.90
8662;DHT22;29684;47.722;9.388;2023-04-08T14:21:37;11.80;99.90
8662;DHT22;29684;47.722;9.388;2023-04-08T14:24:21;10.10;99.90
8662;DHT22;29684;47.722;9.388;2023-04-08T14:27:05;10.10;99.90
8662;DHT22;29684;47.722;9.388;2023-04-08T14:29:49;10.00;99.90
8662;DHT22;29684;47.722;9.388;2023-04-08T14:32:33;9.70;99.90
8662;DHT22;29684;47.722;9.388;2023-04-08T14:38:02;7.30;99.90
8662;DHT22;29684;47.722;9.388;2023-04-08T14:40:46;9.60;99.90
8662;DHT22;29684;47.722;9.388;2023-04-08T14:43:30;9.40;99.90
8662;DHT22;29684;47.722;9.388;2023-04-08T14:46:15;9.40;99.90
8662;DHT22;29684;47.722;9.388;2023-04-08T14:48:59;9.50;99.90
8662;DHT22;29684;47.722;9.388;2023-04-08T14:51:44;10.20;99.90
8662;DHT22;29684;47.722;9.388;2023-04-08T14:54:28;9.80;99.90
8662;DHT22;29684;47.722;9.388;2023-04-08T14:57:12;9.80;99.90
8662;DHT22;29684;47.722;9.388;2023-04-08T14:59:56;9.80;99.90
8662;DHT22;29684;47.722;9.388;2023-04-08T15:02:42;10.50;99.90
8662;DHT22;29684;47.722;9.388;2023-04-08T15:05:26;9.60;99.90
8662;DHT22;29684;47.722;9.388;2023-04-08T15:08:11;9.60;99.90
8662;DHT22;29684;47.722;9.388;2023-04-08T15:10:55;9.70;99.90
8662;DHT22;29684;47.722;9.388;2023-04-08T15:13:40;9.20;99.90
8662;DHT22;29684;47.722;9.388;2023-04-08T15:16:24;9.20;99.90
8662;DHT22;29684;47.722;9.388;2023-04-08T15:19:08;9.40;99.90
8662;DHT22;29684;47.722;9.388;2023-04-08T15:21:52;9.40;99.90
8662;DHT22;29684;47.722;9.388;2023-04-08T15:24:36;9.10;99.90
8662;DHT22;29684;47.722;9.388;2023-04-08T15:27:20;10.10;99.90
8662;DHT22;29684;47.722;9.388;2023-04-08T15:30:07;9.70;99.90
8662;DHT22;29684;47.722;9.388;2023-04-08T15:32:51;8.90;99.90
8662;DHT22;29684;47.722;9.388;2023-04-08T15:35:37;8.90;99.90
8662;DHT22;29684;47.722;9.388;2023-04-08T15:38:21;8.70;99.90
8662;DHT22;29684;47.722;9.388;2023-04-08T15:41:05;8.70;99.90
8662;DHT22;29684;47.722;9.388;2023-04-08T15:43:51;8.70;99.90
8662;DHT22;29684;47.722;9.388;2023-04-08T15:46:35;8.60;99.90
8662;DHT22;29684;47.722;9.388;2023-04-08T15:49:19;8.30;99.90
8662;DHT22;29684;47.722;9.388;2023-04-08T15:52:04;8.30;99.90
8662;DHT22;29684;47.722;9.388;2023-04-08T15:54:48;8.20;99.90
8662;DHT22;29684;47.722;9.388;2023-04-08T15:57:32;8.20;99.90
8662;DHT22;29684;47.722;9.388;2023-04-08T16:00:19;8.20;99.90
8662;DHT22;29684;47.722;9.388;2023-04-08T16:03:03;8.10;99.90
8662;DHT22;29684;47.722;9.388;2023-04-08T16:05:48;8.10;99.90
8662;DHT22;29684;47.722;9.388;2023-04-08T16:08:33;8.10;99.90
8662;DHT22;29684;47.722;9.388;2023-04-08T16:11:17;8.10;99.90
8662;DHT22;29684;47.722;9.388;2023-04-08T16:14:01;8.00;99.90
8662;DHT22;29684;47.722;9.388;2023-04-08T16:16:47;7.90;99.90
8662;DHT22;29684;47.722;9.388;2023-04-08T16:19:32;7.80;99.90
8662;DHT22;29684;47.722;9.388;2023-04-08T16:22:16;7.80;99.90
8662;DHT22;29684;47.722;9.388;2023-04-08T16:25:01;7.90;99.90
8662;DHT22;29684;47.722;9.388;2023-04-08T16:27:45;7.90;99.90
8662;DHT22;29684;47.722;9.388;2023-04-08T16:30:30;7.80;99.90
8662;DHT22;29684;47.722;9.388;2023-04-08T16:33:15;7.70;99.90
8662;DHT22;29684;47.722;9.388;2023-04-08T16:36:00;7.70;99.90
8662;DHT22;29684;47.722;9.388;2023-04-08T16:38:44;7.70;99.90
8662;DHT22;29684;47.722;9.388;2023-04-08T16:41:28;7.70;99.90
8662;DHT22;29684;47.722;9.388;2023-04-08T16:44:12;7.80;99.90
8662;DHT22;29684;47.722;9.388;2023-04-08T16:46:57;7.80;99.90
8662;DHT22;29684;47.722;9.388;2023-04-08T16:49:41;7.80;99.90
8662;DHT22;29684;47.722;9.388;2023-04-08T16:52:25;7.80;99.90
8662;DHT22;29684;47.722;9.388;2023-04-08T16:55:09;7.90;99.90
8662;DHT22;29684;47.722;9.388;2023-04-08T16:57:53;7.70;99.90
8662;DHT22;29684;47.722;9.388;2023-04-08T17:00:37;7.70;99.90
8662;DHT22;29684;47.722;9.388;2023-04-08T17:03:22;7.70;99.90
8662;DHT22;29684;47.722;9.388;2023-04-08T17:06:10;7.60;99.90
8662;DHT22;29684;47.722;9.388;2023-04-08T17:08:56;7.60;99.90
8662;DHT22;29684;47.722;9.388;2023-04-08T17:11:40;7.60;99.90
8662;DHT22;29684;47.722;9.388;2023-04-08T17:14:24;7.60;99.90
8662;DHT22;29684;47.722;9.388;2023-04-08T17:17:10;7.60;99.90
8662;DHT22;29684;47.722;9.388;2023-04-08T17:19:54;7.50;99.90
8662;DHT22;29684;47.722;9.388;2023-04-08T17:22:38;7.40;99.90
8662;DHT22;29684;47.722;9.388;2023-04-08T17:25:22;7.40;99.90
8662;DHT22;29684;47.722;9.388;2023-04-08T17:28:07;7.50;99.90
8662;DHT22;29684;47.722;9.388;2023-04-08T17:30:52;8.00;99.90
8662;DHT22;29684;47.722;9.388;2023-04-08T17:33:36;8.00;99.90
8662;DHT22;29684;47.722;9.388;2023-04-08T17:36:20;8.10;99.90
8662;DHT22;29684;47.722;9.388;2023-04-08T17:39:04;8.10;99.90
8662;DHT22;29684;47.722;9.388;2023-04-08T17:41:48;8.20;99.90
8662;DHT22;29684;47.722;9.388;2023-04-08T17:44:32;8.00;99.90
8662;DHT22;29684;47.722;9.388;2023-04-08T17:47:17;8.10;99.90
8662;DHT22;29684;47.722;9.388;2023-04-08T17:50:01;8.00;99.90
8662;DHT22;29684;47.722;9.388;2023-04-08T17:52:45;8.00;99.90
8662;DHT22;29684;47.722;9.388;2023-04-08T17:55:29;8.10;99.90
8662;DHT22;29684;47.722;9.388;2023-04-08T17:58:13;8.10;99.90
8662;DHT22;29684;47.722;9.388;2023-04-08T18:00:57;8.00;99.90
8662;DHT22;29684;47.722;9.388;2023-04-08T18:03:41;7.90;99.90
8662;DHT22;29684;47.722;9.388;2023-04-08T18:06:26;8.00;99.90
8662;DHT22;29684;47.722;9.388;2023-04-08T18:09:11;8.00;99.90
8662;DHT22;29684;47.722;9.388;2023-04-08T18:11:55;8.00;99.90
8662;DHT22;29684;47.722;9.388;2023-04-08T18:14:39;7.80;99.90
8662;DHT22;29684;47.722;9.388;2023-04-08T18:17:24;7.80;99.90